Avondale, CO

9:39 PM MST on December 25, 2014 (GMT -0700)
Pueblo Memorial | Change Station
CLOSE
Current Station
Airport
Location: Pueblo,
Elevation: 4721 ft
Nearby Weather Stations
Active Advisory: Winter Weather Advisory Active Notice: Public Information Statement

Elev 4721 ft 38.29 °N, 104.50 °W | Updated 46 minutes ago

Overcast
Overcast
32 °F
Feels Like 20 °F
N
22
Wind Variable Wind from NNE

Today
High -- | Low -- °F
--% Chance of Precip.
Yesterday
High -- | Low -- °F
Precip. -- in
7:12 AM 4:43 PM
Waxing Crescent, 22% visible
Pressure 29.70 in
Visibility 10.0 miles
Clouds Mostly Cloudy 4600 ft
Windchill 20 °F
Dew Point 26 °F
Humidity 79%
Rainfall 0.00 in
Snow Depth Not available.
UV 0 out of 12
Pollen .10 out of 12
Air Quality Not available.
Flu Activity Not available.
METAR KPUB 260353Z AUTO 03019KT 10SM BKN046 00/M03 A2971 RMK AO2 PK WND 03027/0343 SLP057 T00001033

More Conditions Fewer Conditions

Pressure 29.70 in
Visibility 10.0 miles
Clouds Mostly Cloudy 4600 ft
Windchill 20 °F
Dew Point 26 °F
Humidity 79%
Rainfall 0.00 in
Snow Depth Not available.
UV 0 out of 12
Pollen .10 out of 12
Air Quality Not available.
Flu Activity Not available.
METAR KPUB 260353Z AUTO 03019KT 10SM BKN046 00/M03 A2971 RMK AO2 PK WND 03027/0343 SLP057 T00001033

More Conditions Fewer Conditions

10-Day Weather Forecast

Almanac

Astronomy

Dec. 25, 2014 Rise Set
Actual Time
Civil Twilight
Nautical Twilight
Astronomical Twilight
Moon
Length of Visible Light
Length of Day
Tomorrow will be .
, % of the Moon is Illuminated

Today's Extremes

State Highs State Lows

Community

WunderPhotos

Upload Photos

1,780,537 photos uploaded!

WunderBlogs® & News

Nearby

Air Quality

  Air Quality AQ Index Pollutant
Not available.

Snow Depth

Station Depth Elevation

Earthquake Activity

City Distance Mag. Time & Date
Minimum magnitude displayed is 2.5.

Coastal Water Temperatures

Place Temperature

Nearby Weather Stations